createdAt,value
2022-10-22T00:01:07.370Z,2.50
2022-10-22T00:03:34.116Z,2.30
2022-10-22T00:06:01.108Z,2.40
2022-10-22T00:08:27.985Z,2.30
2022-10-22T00:10:55.772Z,2.70
2022-10-22T00:13:23.299Z,2.95
2022-10-22T00:15:49.975Z,2.30
2022-10-22T00:18:16.589Z,2.95
2022-10-22T00:20:44.265Z,2.22
2022-10-22T00:23:10.872Z,2.50
2022-10-22T00:25:37.541Z,2.92
2022-10-22T00:28:04.368Z,2.70
2022-10-22T00:30:31.067Z,2.80
2022-10-22T00:32:57.593Z,2.80
2022-10-22T00:35:24.277Z,2.60
2022-10-22T00:37:50.794Z,2.70
2022-10-22T00:40:18.903Z,2.55
2022-10-22T00:42:45.466Z,2.72
2022-10-22T00:45:12.211Z,2.72
2022-10-22T00:47:54.958Z,2.92
2022-10-22T00:50:56.499Z,3.10
2022-10-22T00:53:26.928Z,2.72
2022-10-22T00:55:55.626Z,2.80
2022-10-22T00:58:26.077Z,3.40
2022-10-22T01:00:53.081Z,2.97
2022-10-22T01:03:20.816Z,2.90
2022-10-22T01:05:59.544Z,3.10
2022-10-22T01:08:46.409Z,3.50
2022-10-22T01:11:27.928Z,3.00
2022-10-22T01:14:21.807Z,3.40
2022-10-22T01:17:26.856Z,3.28
2022-10-22T01:20:12.338Z,3.60
2022-10-22T01:22:59.879Z,2.80
2022-10-22T01:25:51.095Z,3.08
2022-10-22T01:28:28.981Z,3.78
2022-10-22T01:30:59.806Z,3.72
2022-10-22T01:33:28.202Z,3.30
2022-10-22T01:35:55.352Z,3.70
2022-10-22T01:38:24.847Z,4.18
2022-10-22T01:40:51.913Z,3.83
2022-10-22T01:43:18.626Z,3.60
2022-10-22T01:45:51.782Z,3.47
2022-10-22T01:48:54.191Z,3.60
2022-10-22T01:51:36.931Z,3.63
2022-10-22T01:54:12.972Z,3.50
2022-10-22T01:56:54.623Z,3.63
2022-10-22T01:59:58.941Z,3.83
2022-10-22T02:02:52.847Z,3.22
2022-10-22T02:05:30.018Z,3.30
2022-10-22T02:08:15.838Z,3.80
2022-10-22T02:10:45.122Z,3.63
2022-10-22T02:13:21.500Z,4.00
2022-10-22T02:15:51.742Z,3.35
2022-10-22T02:18:22.315Z,3.55
2022-10-22T02:20:49.588Z,4.28
2022-10-22T02:23:21.199Z,3.65
2022-10-22T02:25:52.107Z,3.70
2022-10-22T02:28:38.098Z,4.00
2022-10-22T02:31:19.373Z,3.72
2022-10-22T02:33:50.678Z,3.60
2022-10-22T02:36:19.022Z,4.20
2022-10-22T02:38:48.006Z,3.75
2022-10-22T02:41:16.678Z,3.95
2022-10-22T02:43:48.863Z,3.55
2022-10-22T02:46:16.737Z,3.78
2022-10-22T02:48:43.255Z,4.10
2022-10-22T02:51:11.533Z,3.97
2022-10-22T02:53:38.066Z,3.78
2022-10-22T02:56:05.410Z,4.45
2022-10-22T02:58:31.967Z,3.88
2022-10-22T03:00:58.831Z,3.42
2022-10-22T03:03:25.384Z,3.65
2022-10-22T03:05:52.085Z,3.88
2022-10-22T03:08:18.788Z,3.97
2022-10-22T03:10:45.688Z,3.78
2022-10-22T03:13:12.249Z,4.05
2022-10-22T03:15:38.951Z,4.40
2022-10-22T03:18:05.554Z,3.70
2022-10-22T03:20:32.221Z,3.55
2022-10-22T03:22:59.017Z,4.20
2022-10-22T03:25:27.596Z,4.30
2022-10-22T03:27:56.911Z,3.50
2022-10-22T03:30:23.503Z,3.67
2022-10-22T03:32:50.221Z,3.95
2022-10-22T03:35:17.064Z,3.88
2022-10-22T03:37:44.815Z,3.85
2022-10-22T03:40:12.706Z,3.92
2022-10-22T03:42:41.544Z,3.58
2022-10-22T03:45:08.665Z,4.10
2022-10-22T03:47:36.765Z,4.07
2022-10-22T03:50:04.770Z,4.38
2022-10-22T03:52:37.142Z,3.55
2022-10-22T03:55:05.045Z,4.07
2022-10-22T03:57:32.528Z,3.58
2022-10-22T03:59:59.217Z,3.63
2022-10-22T04:02:25.919Z,3.92
2022-10-22T04:04:52.525Z,3.58
2022-10-22T04:07:19.478Z,4.22
2022-10-22T04:09:46.051Z,4.45
2022-10-22T04:12:12.716Z,3.42
2022-10-22T04:14:39.253Z,3.80
2022-10-22T04:17:05.904Z,3.63
2022-10-22T04:19:32.985Z,3.58
2022-10-22T04:22:00.342Z,3.30
2022-10-22T04:24:26.945Z,3.90
2022-10-22T04:26:56.790Z,3.83
2022-10-22T04:29:24.058Z,4.72
2022-10-22T04:31:51.004Z,4.03
2022-10-22T04:34:17.640Z,3.50
2022-10-22T04:37:03.331Z,3.65
2022-10-22T04:39:29.964Z,3.30
2022-10-22T04:41:56.947Z,3.85
2022-10-22T04:44:23.517Z,4.30
2022-10-22T04:46:50.427Z,4.03
2022-10-22T04:49:17.063Z,4.32
2022-10-22T04:51:45.451Z,3.72
2022-10-22T04:54:11.985Z,3.97
2022-10-22T04:56:38.589Z,3.90
2022-10-22T04:59:07.130Z,3.40
2022-10-22T05:01:45.366Z,4.47
2022-10-22T05:04:17.000Z,4.15
2022-10-22T05:07:02.066Z,4.57
2022-10-22T05:09:28.749Z,4.35
2022-10-22T05:11:55.519Z,4.15
2022-10-22T05:14:24.426Z,4.18
2022-10-22T05:16:52.391Z,4.28
2022-10-22T05:19:32.196Z,4.07
2022-10-22T05:22:01.119Z,4.15
2022-10-22T05:24:29.508Z,4.10
2022-10-22T05:26:58.107Z,3.95
2022-10-22T05:29:25.865Z,4.35
2022-10-22T05:31:53.315Z,4.35
2022-10-22T05:34:19.959Z,4.03
2022-10-22T05:36:46.583Z,3.90
2022-10-22T05:39:13.491Z,4.35
2022-10-22T05:41:41.289Z,4.85
2022-10-22T05:44:07.998Z,4.35
2022-10-22T05:46:53.032Z,3.70
2022-10-22T05:49:19.605Z,3.90
2022-10-22T05:51:46.858Z,4.55
2022-10-22T05:54:19.174Z,4.22
2022-10-22T05:56:47.707Z,3.38
2022-10-22T05:59:14.352Z,4.85
2022-10-22T06:01:41.537Z,4.43
2022-10-22T06:04:11.464Z,3.92
2022-10-22T06:06:57.062Z,4.18
2022-10-22T06:09:34.283Z,3.80
2022-10-22T06:12:01.468Z,3.72
2022-10-22T06:14:28.971Z,4.03
2022-10-22T06:16:55.586Z,4.15
2022-10-22T06:19:23.756Z,4.45
2022-10-22T06:21:50.383Z,3.92
2022-10-22T06:24:17.207Z,4.15
2022-10-22T06:26:44.953Z,3.83
2022-10-22T06:29:11.679Z,3.90
2022-10-22T06:31:57.105Z,3.63
2022-10-22T06:34:23.676Z,3.90
2022-10-22T06:36:51.933Z,3.95
2022-10-22T06:39:18.488Z,3.35
2022-10-22T06:41:45.744Z,3.75
2022-10-22T06:44:15.676Z,3.88
2022-10-22T06:46:43.603Z,3.83
2022-10-22T06:49:14.272Z,3.80
2022-10-22T06:51:41.128Z,3.70
2022-10-22T06:54:07.811Z,3.60
2022-10-22T06:56:34.549Z,3.90
2022-10-22T06:59:01.144Z,4.30
2022-10-22T07:01:33.026Z,4.30
2022-10-22T07:04:00.104Z,3.70
2022-10-22T07:06:28.919Z,4.40
2022-10-22T07:08:57.729Z,4.75
2022-10-22T07:11:30.262Z,4.03
2022-10-22T07:13:59.204Z,4.53
2022-10-22T07:16:29.681Z,5.43
2022-10-22T07:31:16.988Z,4.20
2022-10-22T07:33:44.025Z,3.90
2022-10-22T07:36:17.490Z,3.67
2022-10-22T07:38:48.697Z,3.67
2022-10-22T07:41:17.110Z,3.50
2022-10-22T07:43:43.690Z,3.95
2022-10-22T07:46:10.718Z,3.67
2022-10-22T07:48:38.095Z,4.15
2022-10-22T07:51:05.538Z,4.65
2022-10-22T07:53:32.412Z,3.90
2022-10-22T07:55:59.015Z,4.25
2022-10-22T07:58:25.975Z,3.75
2022-10-22T08:00:56.581Z,3.83
2022-10-22T08:03:23.204Z,4.20
2022-10-22T08:05:49.868Z,3.72
2022-10-22T08:08:17.006Z,3.70
2022-10-22T08:10:44.382Z,3.60
2022-10-22T08:13:11.519Z,3.08
2022-10-22T08:15:38.647Z,3.47
2022-10-22T08:18:06.084Z,3.78
2022-10-22T08:20:33.027Z,3.45
2022-10-22T08:22:59.932Z,3.58
2022-10-22T08:25:26.673Z,4.20
2022-10-22T08:27:53.466Z,3.28
2022-10-22T08:30:20.324Z,3.40
2022-10-22T08:32:49.315Z,3.75
2022-10-22T08:35:18.196Z,3.78
2022-10-22T08:37:44.783Z,3.10
2022-10-22T08:40:23.295Z,4.68
2022-10-22T08:43:09.334Z,3.72
2022-10-22T08:45:41.568Z,3.80
2022-10-22T08:48:30.191Z,3.90
2022-10-22T08:50:58.088Z,3.33
2022-10-22T08:54:07.029Z,3.10
2022-10-22T08:56:37.045Z,3.17
2022-10-22T08:59:08.813Z,3.72
2022-10-22T09:01:41.748Z,2.92
2022-10-22T09:04:26.336Z,2.60
2022-10-22T09:06:55.776Z,3.25
2022-10-22T09:09:27.747Z,2.60
2022-10-22T09:11:58.064Z,3.53
2022-10-22T09:14:26.466Z,2.95
2022-10-22T09:17:11.326Z,3.47
2022-10-22T09:19:56.864Z,2.55
2022-10-22T09:25:26.189Z,4.32
2022-10-22T09:27:58.167Z,3.30
2022-10-22T09:30:29.805Z,2.40
2022-10-22T09:33:26.785Z,2.70
2022-10-22T09:35:54.421Z,2.53
2022-10-22T09:38:30.273Z,2.35
2022-10-22T09:40:59.718Z,2.45
2022-10-22T09:43:26.303Z,2.08
2022-10-22T09:45:59.073Z,2.88
2022-10-22T09:48:52.469Z,2.38
2022-10-22T09:51:19.281Z,2.42
2022-10-22T09:53:48.608Z,2.45
2022-10-22T09:56:25.237Z,2.13
2022-10-22T09:58:52.010Z,2.15
2022-10-22T10:01:30.027Z,2.30
2022-10-22T10:04:09.678Z,2.35
2022-10-22T10:06:40.299Z,3.28
2022-10-22T10:09:15.727Z,2.00
2022-10-22T10:11:53.883Z,2.65
2022-10-22T10:14:42.829Z,2.20
2022-10-22T10:17:18.874Z,2.33
2022-10-22T10:19:45.460Z,2.10
2022-10-22T10:22:23.712Z,2.22
2022-10-22T10:24:56.235Z,2.60
2022-10-22T10:27:39.584Z,2.38
2022-10-22T10:30:11.928Z,1.85
2022-10-22T10:33:03.349Z,2.45
2022-10-22T10:35:48.383Z,2.65
2022-10-22T10:38:39.867Z,2.60
2022-10-22T10:41:31.124Z,2.40
2022-10-22T10:44:16.295Z,2.55
2022-10-22T10:47:05.478Z,2.47
2022-10-22T10:49:35.371Z,2.38
2022-10-22T10:52:21.297Z,2.58
2022-10-22T10:55:22.480Z,2.30
2022-10-22T10:58:27.292Z,2.47
2022-10-22T11:00:57.809Z,1.90
2022-10-22T11:03:36.517Z,2.53
2022-10-22T11:06:20.484Z,2.42
2022-10-22T11:09:27.219Z,2.70
2022-10-22T11:12:02.723Z,2.00
2022-10-22T11:14:41.646Z,2.47
2022-10-22T11:17:17.121Z,2.28
2022-10-22T11:20:01.615Z,2.78
2022-10-22T11:22:50.478Z,2.60
2022-10-22T11:25:34.867Z,2.30
2022-10-22T11:28:20.036Z,2.33
2022-10-22T11:30:55.075Z,2.67
2022-10-22T11:33:26.787Z,2.55
2022-10-22T11:35:53.583Z,2.60
2022-10-22T11:38:26.105Z,2.53
2022-10-22T11:41:06.630Z,2.33
2022-10-22T11:43:49.189Z,3.60
2022-10-22T11:46:15.656Z,2.67
2022-10-22T11:48:42.759Z,2.80
2022-10-22T11:51:38.035Z,2.60
2022-10-22T11:54:44.332Z,2.70
2022-10-22T11:57:16.847Z,2.58
2022-10-22T12:00:06.797Z,3.05
2022-10-22T12:02:46.055Z,3.03
2022-10-22T12:05:22.993Z,3.40
2022-10-22T12:08:24.922Z,2.75
2022-10-22T12:11:00.348Z,2.60
2022-10-22T12:13:30.494Z,2.70
2022-10-22T12:16:01.530Z,2.55
2022-10-22T12:18:41.228Z,3.13
2022-10-22T12:21:14.060Z,3.03
2022-10-22T12:23:40.998Z,2.97
2022-10-22T12:26:23.568Z,2.20
2022-10-22T12:28:50.180Z,2.45
2022-10-22T12:31:17.576Z,3.10
2022-10-22T12:33:44.556Z,3.67
2022-10-22T12:36:18.677Z,2.85
2022-10-22T12:38:48.354Z,2.28
2022-10-22T12:41:15.086Z,3.10
2022-10-22T12:43:41.716Z,3.25
2022-10-22T12:46:13.920Z,2.63
2022-10-22T12:48:44.072Z,3.55
2022-10-22T12:51:18.174Z,2.75
2022-10-22T12:53:50.862Z,2.70
2022-10-22T12:56:28.491Z,2.58
2022-10-22T12:59:22.370Z,2.72
2022-10-22T13:01:50.287Z,2.40
2022-10-22T13:04:23.601Z,2.30
2022-10-22T13:07:06.865Z,2.72
2022-10-22T13:09:56.092Z,2.58
2022-10-22T13:12:36.037Z,2.53
2022-10-22T13:15:23.071Z,2.65
2022-10-22T13:20:21.044Z,2.30
2022-10-22T13:23:00.299Z,2.60
2022-10-22T13:25:30.625Z,3.00
2022-10-22T13:28:17.105Z,2.20
2022-10-22T13:30:55.951Z,2.60
2022-10-22T13:33:34.600Z,2.80
2022-10-22T13:36:01.720Z,2.20
2022-10-22T13:38:29.157Z,2.42
2022-10-22T13:40:56.715Z,2.72
2022-10-22T13:43:23.429Z,2.90
2022-10-22T13:45:54.239Z,2.55
2022-10-22T13:48:23.554Z,2.92
2022-10-22T13:50:51.678Z,2.10
2022-10-22T13:53:22.087Z,1.30
2022-10-22T13:55:50.248Z,2.05
2022-10-22T13:58:24.813Z,2.30
2022-10-22T14:00:55.841Z,2.88
2022-10-22T14:03:29.683Z,1.88
2022-10-22T14:05:56.371Z,2.30
2022-10-22T14:08:26.007Z,2.10
2022-10-22T14:10:53.008Z,2.10
2022-10-22T14:13:20.279Z,1.90
2022-10-22T14:15:49.995Z,2.22
2022-10-22T14:18:25.584Z,2.10
2022-10-22T14:21:01.531Z,1.80
2022-10-22T14:23:30.640Z,2.08
2022-10-22T14:25:58.493Z,1.90
2022-10-22T14:28:25.395Z,1.98
2022-10-22T14:30:52.603Z,2.17
2022-10-22T14:33:27.152Z,1.95
2022-10-22T14:35:57.199Z,2.40
2022-10-22T14:38:24.105Z,2.08
2022-10-22T14:40:50.682Z,2.03
2022-10-22T14:43:29.051Z,2.30
2022-10-22T14:45:56.097Z,2.42
2022-10-22T14:48:22.693Z,2.45
2022-10-22T14:50:49.815Z,2.03
2022-10-22T14:53:19.427Z,2.25
2022-10-22T14:55:47.476Z,3.28
2022-10-22T14:58:14.971Z,2.92
2022-10-22T15:00:43.204Z,2.33
2022-10-22T15:03:11.621Z,2.38
2022-10-22T15:05:44.379Z,2.42
2022-10-22T15:08:13.177Z,2.15
2022-10-22T15:10:40.288Z,2.40
2022-10-22T15:13:07.043Z,2.30
2022-10-22T15:15:34.113Z,2.33
2022-10-22T15:18:01.992Z,2.58
2022-10-22T15:20:28.942Z,2.67
2022-10-22T15:22:56.574Z,2.20
2022-10-22T15:25:23.243Z,2.47
2022-10-22T15:27:51.292Z,2.92
2022-10-22T15:30:20.723Z,2.65
2022-10-22T15:32:47.297Z,2.40
2022-10-22T15:35:13.998Z,2.53
2022-10-22T15:37:40.551Z,2.55
2022-10-22T15:40:08.848Z,2.95
2022-10-22T15:42:35.467Z,2.70
2022-10-22T15:45:02.340Z,3.33
2022-10-22T15:47:31.136Z,2.92
2022-10-22T15:49:58.144Z,2.38
2022-10-22T15:52:24.922Z,3.20
2022-10-22T15:54:51.572Z,3.17
2022-10-22T15:57:18.156Z,2.63
2022-10-22T15:59:44.977Z,3.45
2022-10-22T16:02:11.671Z,3.30
2022-10-22T16:04:39.278Z,3.17
2022-10-22T16:07:05.963Z,2.92
2022-10-22T16:09:32.569Z,3.00
2022-10-22T16:11:59.305Z,3.00
2022-10-22T16:14:25.881Z,2.85
2022-10-22T16:16:55.521Z,2.50
2022-10-22T16:19:23.675Z,2.88
2022-10-22T16:21:51.758Z,2.35
2022-10-22T16:24:19.584Z,2.75
2022-10-22T16:26:46.666Z,2.50
2022-10-22T16:29:13.468Z,3.40
2022-10-22T16:31:41.265Z,2.70
2022-10-22T16:34:08.084Z,2.63
2022-10-22T16:36:36.746Z,2.85
2022-10-22T16:39:05.146Z,3.30
2022-10-22T16:41:40.808Z,2.80
2022-10-22T16:44:08.804Z,3.30
2022-10-22T16:46:39.119Z,2.70
2022-10-22T16:49:06.952Z,2.58
2022-10-22T16:51:35.433Z,2.95
2022-10-22T16:54:03.652Z,3.20
2022-10-22T16:56:32.225Z,3.20
2022-10-22T16:58:59.035Z,3.10
2022-10-22T17:01:29.094Z,3.10
2022-10-22T17:03:59.390Z,3.10
2022-10-22T17:06:26.093Z,3.67
2022-10-22T17:08:52.856Z,3.88
2022-10-22T17:11:22.716Z,3.55
2022-10-22T17:13:52.653Z,3.25
2022-10-22T17:16:22.259Z,3.47
2022-10-22T17:18:49.117Z,4.03
2022-10-22T17:21:16.739Z,3.53
2022-10-22T17:23:43.735Z,3.33
2022-10-22T17:26:20.891Z,3.65
2022-10-22T17:28:48.289Z,3.80
2022-10-22T17:31:20.778Z,4.35
2022-10-22T17:33:48.817Z,4.13
2022-10-22T17:36:17.209Z,4.43
2022-10-22T17:38:48.292Z,4.82
2022-10-22T17:41:24.215Z,4.50
2022-10-22T17:43:51.047Z,4.95
2022-10-22T17:46:24.068Z,4.70
2022-10-22T17:48:52.632Z,5.20
2022-10-22T17:51:20.495Z,4.65
2022-10-22T17:53:47.615Z,4.55
2022-10-22T17:56:20.083Z,4.47
2022-10-22T17:58:46.663Z,4.80
2022-10-22T18:01:28.834Z,4.25
2022-10-22T18:04:00.372Z,4.88
2022-10-22T18:06:27.115Z,5.10
2022-10-22T18:11:27.473Z,4.75
2022-10-22T18:13:56.826Z,5.03
2022-10-22T18:16:25.208Z,5.00
2022-10-22T18:18:54.154Z,5.60
2022-10-22T18:21:23.269Z,5.07
2022-10-22T18:23:50.389Z,6.00
2022-10-22T18:26:20.340Z,6.25
2022-10-22T18:28:49.542Z,6.43
2022-10-22T18:31:21.070Z,6.22
2022-10-22T18:33:48.806Z,6.00
2022-10-22T18:36:19.230Z,4.97
2022-10-22T18:38:51.244Z,7.20
2022-10-22T18:41:20.005Z,5.82
2022-10-22T18:43:53.945Z,5.63
2022-10-22T18:46:40.258Z,5.07
2022-10-22T18:49:11.754Z,4.90
2022-10-22T18:51:38.369Z,5.05
2022-10-22T18:54:21.635Z,4.93
2022-10-22T18:56:49.021Z,4.70
2022-10-22T18:59:21.410Z,4.40
2022-10-22T19:01:48.830Z,4.65
2022-10-22T19:04:15.551Z,3.55
2022-10-22T19:06:45.292Z,4.38
2022-10-22T19:09:14.529Z,4.90
2022-10-22T19:11:43.525Z,3.47
2022-10-22T19:14:10.082Z,3.75
2022-10-22T19:16:37.666Z,4.32
2022-10-22T19:19:06.767Z,4.03
2022-10-22T19:21:33.653Z,4.28
2022-10-22T19:24:00.949Z,4.15
2022-10-22T19:26:29.844Z,4.13
2022-10-22T19:28:57.634Z,4.53
2022-10-22T19:31:27.138Z,3.95
2022-10-22T19:33:56.544Z,4.35
2022-10-22T19:36:25.358Z,4.50
2022-10-22T19:38:52.433Z,3.78
2022-10-22T19:41:21.601Z,4.28
2022-10-22T19:43:51.527Z,5.25
2022-10-22T19:46:18.947Z,4.28
2022-10-22T19:51:20.767Z,4.25
2022-10-22T19:53:48.104Z,4.47
2022-10-22T19:56:18.952Z,4.25
2022-10-22T19:58:46.222Z,4.18
2022-10-22T20:01:15.442Z,4.40
2022-10-22T20:03:43.131Z,4.72
2022-10-22T20:06:11.845Z,5.03
2022-10-22T20:08:39.282Z,5.28
2022-10-22T20:11:13.342Z,5.10
2022-10-22T20:16:06.879Z,5.38
2022-10-22T20:18:34.177Z,5.50
2022-10-22T20:21:08.805Z,6.32
2022-10-22T20:23:35.704Z,6.43
2022-10-22T20:26:02.398Z,6.15
2022-10-22T20:28:28.968Z,6.45
2022-10-22T20:30:55.526Z,6.10
2022-10-22T20:33:22.361Z,5.95
2022-10-22T20:36:02.989Z,5.57
2022-10-22T20:38:29.638Z,5.93
2022-10-22T20:41:06.369Z,5.80
2022-10-22T20:46:00.099Z,5.32
2022-10-22T20:48:31.255Z,6.15
2022-10-22T20:50:59.189Z,5.97
2022-10-22T20:53:26.281Z,5.78
2022-10-22T20:55:57.464Z,6.07
2022-10-22T20:58:26.940Z,6.30
2022-10-22T21:00:55.077Z,6.05
2022-10-22T21:03:22.153Z,5.68
2022-10-22T21:05:48.977Z,5.65
2022-10-22T21:08:17.640Z,5.30
2022-10-22T21:10:49.212Z,5.20
2022-10-22T21:13:16.881Z,5.35
2022-10-22T21:15:43.652Z,5.03
2022-10-22T21:18:10.251Z,5.57
2022-10-22T21:20:38.937Z,5.70
2022-10-22T21:23:05.838Z,5.70
2022-10-22T21:25:32.567Z,5.70
2022-10-22T21:27:59.238Z,4.88
2022-10-22T21:30:25.987Z,4.90
2022-10-22T21:32:52.682Z,4.75
2022-10-22T21:35:19.299Z,4.78
2022-10-22T21:37:45.996Z,4.85
2022-10-22T21:40:12.966Z,4.88
2022-10-22T21:42:40.841Z,4.45
2022-10-22T21:45:12.179Z,5.15
2022-10-22T21:47:41.248Z,4.93
2022-10-22T21:50:08.431Z,5.20
2022-10-22T21:52:34.998Z,5.07
2022-10-22T21:55:02.087Z,5.53
2022-10-22T21:57:28.719Z,5.45
2022-10-22T21:59:56.594Z,5.32
2022-10-22T22:02:23.971Z,5.88
2022-10-22T22:04:54.765Z,5.68
2022-10-22T22:07:22.159Z,6.80
2022-10-22T22:09:50.311Z,5.88
2022-10-22T22:12:18.135Z,5.28
2022-10-22T22:14:47.002Z,5.25
2022-10-22T22:17:15.477Z,4.50
2022-10-22T22:19:42.757Z,4.38
2022-10-22T22:22:09.345Z,3.88
2022-10-22T22:24:35.992Z,3.90
2022-10-22T22:27:02.629Z,3.58
2022-10-22T22:29:29.502Z,3.90
2022-10-22T22:31:56.201Z,3.80
2022-10-22T22:34:22.836Z,3.78
2022-10-22T22:36:49.902Z,4.00
2022-10-22T22:39:19.961Z,3.78
2022-10-22T22:41:47.521Z,3.72
2022-10-22T22:44:16.043Z,3.65
2022-10-22T22:46:42.859Z,3.78
2022-10-22T22:49:09.639Z,3.90
2022-10-22T22:51:36.448Z,3.97
2022-10-22T22:54:03.260Z,3.60
2022-10-22T22:56:34.261Z,3.50
2022-10-22T22:59:01.016Z,3.67
2022-10-22T23:01:29.632Z,3.97
2022-10-22T23:04:10.357Z,3.83
2022-10-22T23:06:37.752Z,3.70
2022-10-22T23:09:06.255Z,3.95
2022-10-22T23:11:33.129Z,4.10
2022-10-22T23:14:02.089Z,3.97
2022-10-22T23:16:31.434Z,4.10
2022-10-22T23:18:59.085Z,4.28
2022-10-22T23:21:28.651Z,4.93
2022-10-22T23:23:57.520Z,3.78
2022-10-22T23:26:27.830Z,3.97
2022-10-22T23:28:54.651Z,4.05
2022-10-22T23:31:21.839Z,4.10
2022-10-22T23:33:49.501Z,3.95
2022-10-22T23:36:16.107Z,3.85
2022-10-22T23:38:43.472Z,3.90
2022-10-22T23:41:10.182Z,4.45
2022-10-22T23:43:38.336Z,3.90
2022-10-22T23:46:06.858Z,4.47
2022-10-22T23:48:34.040Z,4.38
2022-10-22T23:51:11.912Z,4.07
2022-10-22T23:53:38.838Z,4.32
2022-10-22T23:56:07.717Z,4.30
2022-10-22T23:58:34.863Z,3.90
